createdAt,value
2017-05-04T00:00:49.726Z,0
2017-05-04T00:02:04.666Z,0
2017-05-04T00:03:04.686Z,0
2017-05-04T00:03:50.094Z,0
2017-05-04T00:05:04.727Z,0
2017-05-04T00:06:50.157Z,0
2017-05-04T00:07:50.183Z,0
2017-05-04T00:08:50.198Z,0
2017-05-04T00:09:49.612Z,0
2017-05-04T00:11:04.857Z,0
2017-05-04T00:11:50.272Z,0
2017-05-04T00:12:50.288Z,0
2017-05-04T00:13:50.309Z,0
2017-05-04T00:15:50.352Z,0
2017-05-04T00:16:50.372Z,0
2017-05-04T00:17:50.396Z,0
2017-05-04T00:18:50.423Z,0
2017-05-04T00:19:50.436Z,0
2017-05-04T00:20:50.462Z,0
2017-05-04T00:21:50.480Z,0
2017-05-04T00:23:05.122Z,0
2017-05-04T00:23:50.526Z,0
2017-05-04T00:24:50.549Z,0
2017-05-04T00:25:50.569Z,0
2017-05-04T00:27:04.903Z,0
2017-05-04T00:28:04.935Z,0
2017-05-04T00:28:50.640Z,0
2017-05-04T00:29:50.659Z,0
2017-05-04T00:30:50.679Z,0
2017-05-04T00:32:05.323Z,0
2017-05-04T00:32:50.730Z,0
2017-05-04T00:34:05.058Z,0
2017-05-04T00:35:05.081Z,0
2017-05-04T00:36:05.407Z,0
2017-05-04T00:36:50.807Z,0
2017-05-04T00:37:50.842Z,0
2017-05-04T00:39:05.472Z,0
2017-05-04T00:40:05.187Z,0
2017-05-04T00:40:50.897Z,0
2017-05-04T00:41:50.920Z,0
2017-05-04T00:43:05.555Z,0
2017-05-04T00:43:50.962Z,0
2017-05-04T00:44:50.678Z,0
2017-05-04T00:45:51.012Z,0
2017-05-04T00:46:50.723Z,0
2017-05-04T00:47:51.054Z,0
2017-05-04T00:48:51.074Z,0
2017-05-04T00:49:51.094Z,0
2017-05-04T00:51:05.729Z,0
2017-05-04T00:51:51.159Z,0
2017-05-04T00:52:51.156Z,0
2017-05-04T00:53:51.182Z,0
2017-05-04T00:55:20.432Z,0
2017-05-04T00:55:51.221Z,0
2017-05-04T00:56:51.242Z,0
2017-05-04T00:58:05.888Z,0
2017-05-04T00:58:51.286Z,0
2017-05-04T00:59:51.010Z,0
2017-05-04T01:01:51.360Z,0
2017-05-04T01:03:51.398Z,0
2017-05-04T01:04:51.417Z,0
2017-05-04T01:06:06.061Z,0
2017-05-04T01:06:51.457Z,0
2017-05-04T01:07:51.486Z,0
2017-05-04T01:08:51.504Z,0
2017-05-04T01:10:06.145Z,0
2017-05-04T01:10:51.549Z,0
2017-05-04T01:12:06.185Z,0
2017-05-04T01:12:51.592Z,0
2017-05-04T01:14:51.630Z,0
2017-05-04T01:15:51.658Z,0
2017-05-04T01:16:51.676Z,0
2017-05-04T01:17:51.703Z,0
2017-05-04T01:19:51.744Z,0
2017-05-04T01:20:51.458Z,0
2017-05-04T01:21:51.785Z,0
2017-05-04T01:22:51.806Z,0
2017-05-04T01:23:51.836Z,0
2017-05-04T01:24:51.850Z,0
2017-05-04T01:25:51.887Z,0
2017-05-04T01:27:51.918Z,0
2017-05-04T01:29:06.553Z,0
2017-05-04T01:30:06.572Z,0
2017-05-04T01:30:51.985Z,0
2017-05-04T01:31:52.002Z,0
2017-05-04T01:32:52.021Z,0
2017-05-04T01:33:52.047Z,0
2017-05-04T01:35:06.686Z,0
2017-05-04T01:35:52.090Z,0
2017-05-04T01:36:52.114Z,0
2017-05-04T01:37:52.129Z,0
2017-05-04T01:38:52.156Z,0
2017-05-04T01:39:52.170Z,0
2017-05-04T01:41:06.806Z,0
2017-05-04T01:41:52.213Z,0
2017-05-04T01:43:06.854Z,0
2017-05-04T01:43:51.952Z,0
2017-05-04T01:45:06.285Z,0
2017-05-04T01:46:06.941Z,0
2017-05-04T01:46:52.324Z,0
2017-05-04T01:47:52.043Z,0
2017-05-04T01:49:06.687Z,0
2017-05-04T01:49:52.086Z,0
2017-05-04T01:50:52.099Z,0
2017-05-04T01:51:52.435Z,0
2017-05-04T01:52:52.454Z,0
2017-05-04T01:54:06.783Z,0
2017-05-04T01:55:07.104Z,0
2017-05-04T01:56:07.126Z,0
2017-05-04T01:56:52.533Z,0
2017-05-04T01:57:52.554Z,0
2017-05-04T01:59:06.885Z,0
2017-05-04T01:59:52.290Z,0
2017-05-04T02:00:52.618Z,0
2017-05-04T02:02:07.256Z,0
2017-05-04T02:02:52.658Z,0
2017-05-04T02:03:52.684Z,0
2017-05-04T02:04:52.699Z,0
2017-05-04T02:07:52.764Z,0
2017-05-04T02:08:52.785Z,0
2017-05-04T02:09:52.803Z,0
2017-05-04T02:10:52.824Z,0
2017-05-04T02:11:52.846Z,0
2017-05-04T02:13:22.102Z,0
2017-05-04T02:13:52.889Z,0
2017-05-04T02:14:52.912Z,0
2017-05-04T02:15:52.932Z,0
2017-05-04T02:16:52.954Z,0
2017-05-04T02:18:07.588Z,0
2017-05-04T02:19:53.024Z,0
2017-05-04T02:20:53.041Z,0
2017-05-04T02:21:53.067Z,0
2017-05-04T02:22:53.087Z,0
2017-05-04T02:23:53.103Z,0
2017-05-04T02:25:07.738Z,0
2017-05-04T02:25:53.142Z,0
2017-05-04T02:27:07.780Z,0
2017-05-04T02:27:52.880Z,0
2017-05-04T02:29:07.819Z,0
2017-05-04T02:29:53.226Z,0
2017-05-04T02:31:07.559Z,0
2017-05-04T02:33:07.602Z,0
2017-05-04T02:33:53.342Z,0
2017-05-04T02:34:53.332Z,0
2017-05-04T02:35:53.351Z,0
2017-05-04T02:36:53.081Z,0
2017-05-04T02:38:53.427Z,0
2017-05-04T02:39:53.438Z,0
2017-05-04T02:41:07.770Z,0
2017-05-04T02:41:53.483Z,0
2017-05-04T02:42:53.199Z,0
2017-05-04T02:44:08.145Z,0
2017-05-04T02:44:53.238Z,0
2017-05-04T02:45:53.568Z,0
2017-05-04T02:46:53.312Z,0
2017-05-04T02:47:53.333Z,0
2017-05-04T02:48:53.334Z,0
2017-05-04T02:50:08.261Z,0
2017-05-04T02:50:53.062Z,0
2017-05-04T02:51:53.390Z,0
2017-05-04T02:52:53.407Z,0
2017-05-04T02:53:53.735Z,0
2017-05-04T02:54:53.449Z,0
2017-05-04T02:56:08.087Z,0
2017-05-04T02:57:08.412Z,0
2017-05-04T02:57:53.820Z,0
2017-05-04T02:58:53.838Z,0
2017-05-04T02:59:53.921Z,0
2017-05-04T03:00:53.878Z,0
2017-05-04T03:01:53.902Z,0
2017-05-04T03:02:53.922Z,0
2017-05-04T03:05:08.579Z,0
2017-05-04T03:05:53.985Z,0
2017-05-04T03:06:54.003Z,0
2017-05-04T03:07:54.028Z,0
2017-05-04T03:09:08.667Z,0
2017-05-04T03:09:54.063Z,0
2017-05-04T03:10:54.389Z,0
2017-05-04T03:11:54.109Z,0
2017-05-04T03:13:08.746Z,0
2017-05-04T03:13:54.160Z,0
2017-05-04T03:14:54.169Z,0
2017-05-04T03:15:54.190Z,0
2017-05-04T03:17:08.222Z,0
2017-05-04T03:18:54.264Z,0
2017-05-04T03:20:08.892Z,0
2017-05-04T03:21:08.918Z,0
2017-05-04T03:21:54.340Z,0
2017-05-04T03:22:54.335Z,0
2017-05-04T03:23:54.357Z,0
2017-05-04T03:24:54.380Z,0
2017-05-04T03:26:09.020Z,0
2017-05-04T03:26:54.435Z,0
2017-05-04T03:28:09.060Z,0
2017-05-04T03:28:54.466Z,0
2017-05-04T03:29:54.482Z,0
2017-05-04T03:31:23.738Z,0
2017-05-04T03:32:08.839Z,0
2017-05-04T03:33:09.159Z,0
2017-05-04T03:33:54.564Z,0
2017-05-04T03:35:09.200Z,0
2017-05-04T03:35:54.607Z,0
2017-05-04T03:37:09.240Z,0
2017-05-04T03:37:54.671Z,0
2017-05-04T03:38:54.666Z,0
2017-05-04T03:39:54.684Z,0
2017-05-04T03:40:54.714Z,0
2017-05-04T03:41:54.725Z,0
2017-05-04T03:43:54.463Z,0
2017-05-04T03:45:09.100Z,0
2017-05-04T03:45:54.814Z,0
2017-05-04T03:46:54.828Z,0
2017-05-04T03:47:54.850Z,0
2017-05-04T03:48:54.880Z,0
2017-05-04T03:49:54.888Z,0
2017-05-04T03:50:54.910Z,0
2017-05-04T03:51:54.929Z,0
2017-05-04T03:53:09.568Z,0
2017-05-04T03:53:54.968Z,0
2017-05-04T03:54:54.988Z,0
2017-05-04T03:55:55.008Z,0
2017-05-04T03:56:55.028Z,0
2017-05-04T03:57:55.050Z,0
2017-05-04T03:58:55.071Z,0
2017-05-04T03:59:55.089Z,0
2017-05-04T04:00:55.108Z,0
2017-05-04T04:02:09.746Z,0
2017-05-04T04:03:09.766Z,0
2017-05-04T04:03:55.173Z,0
2017-05-04T04:04:55.194Z,0
2017-05-04T04:05:55.217Z,0
2017-05-04T04:06:55.233Z,0
2017-05-04T04:08:09.871Z,0
2017-05-04T04:08:55.270Z,0
2017-05-04T04:09:55.322Z,0
2017-05-04T04:10:55.309Z,0
2017-05-04T04:11:55.332Z,5
2017-05-04T04:12:55.354Z,5
2017-05-04T04:13:55.372Z,5
2017-05-04T04:14:55.390Z,5
2017-05-04T04:15:55.413Z,5
2017-05-04T04:16:55.429Z,5
2017-05-04T04:17:55.459Z,5
2017-05-04T04:19:24.704Z,5
2017-05-04T04:19:55.497Z,5
2017-05-04T04:21:10.129Z,5
2017-05-04T04:21:55.533Z,5
2017-05-04T04:22:55.579Z,5
2017-05-04T04:23:55.581Z,10
2017-05-04T04:24:55.594Z,10
2017-05-04T04:25:55.609Z,10
2017-05-04T04:27:55.653Z,10
2017-05-04T04:28:55.676Z,10
2017-05-04T04:29:55.693Z,10
2017-05-04T04:30:55.712Z,15
2017-05-04T04:32:10.348Z,15
2017-05-04T04:33:24.988Z,15
2017-05-04T04:33:55.772Z,15
2017-05-04T04:34:55.794Z,15
2017-05-04T04:35:55.812Z,15
2017-05-04T04:36:55.831Z,10
2017-05-04T04:38:10.470Z,10
2017-05-04T04:38:55.871Z,10
2017-05-04T04:40:25.129Z,15
2017-05-04T04:40:55.907Z,15
2017-05-04T04:41:55.933Z,15
2017-05-04T04:42:55.954Z,15
2017-05-04T04:43:55.680Z,15
2017-05-04T04:44:55.693Z,15
2017-05-04T04:45:56.025Z,15
2017-05-04T04:46:56.031Z,15
2017-05-04T04:47:56.052Z,10
2017-05-04T04:48:56.075Z,10
2017-05-04T04:49:56.091Z,10
2017-05-04T04:50:56.113Z,10
2017-05-04T04:51:56.135Z,10
2017-05-04T04:53:10.769Z,10
2017-05-04T04:53:55.869Z,10
2017-05-04T04:54:55.889Z,10
2017-05-04T04:56:55.927Z,10
2017-05-04T04:57:55.946Z,10
2017-05-04T04:58:56.270Z,15
2017-05-04T04:59:56.296Z,15
2017-05-04T05:00:56.003Z,15
2017-05-04T05:02:10.643Z,15
2017-05-04T05:03:55.765Z,15
2017-05-04T05:05:10.706Z,15
2017-05-04T05:06:10.416Z,15
2017-05-04T05:07:11.044Z,15
2017-05-04T05:08:11.093Z,15
2017-05-04T05:08:56.466Z,15
2017-05-04T05:09:56.513Z,15
2017-05-04T05:10:56.202Z,15
2017-05-04T05:12:56.251Z,20
2017-05-04T05:14:56.593Z,20
2017-05-04T05:15:56.612Z,20
2017-05-04T05:16:56.623Z,20
2017-05-04T05:17:56.649Z,20
2017-05-04T05:18:56.666Z,20
2017-05-04T05:19:56.692Z,20
2017-05-04T05:21:11.321Z,20
2017-05-04T05:23:11.359Z,25
2017-05-04T05:23:56.780Z,25
2017-05-04T05:24:56.799Z,25
2017-05-04T05:25:56.803Z,25
2017-05-04T05:27:11.442Z,25
2017-05-04T05:28:11.163Z,25
2017-05-04T05:28:56.564Z,20
2017-05-04T05:29:56.594Z,20
2017-05-04T05:30:56.600Z,20
2017-05-04T05:31:56.928Z,20
2017-05-04T05:33:56.969Z,25
2017-05-04T05:35:57.005Z,25
2017-05-04T05:37:11.641Z,25
2017-05-04T05:38:26.278Z,20
2017-05-04T05:38:56.786Z,20
2017-05-04T05:39:57.090Z,20
2017-05-04T05:41:11.417Z,20
2017-05-04T05:42:11.740Z,20
2017-05-04T05:43:11.762Z,20
2017-05-04T05:43:57.160Z,20
2017-05-04T05:44:56.890Z,20
2017-05-04T05:45:57.201Z,15
2017-05-04T05:46:57.226Z,15
2017-05-04T05:48:57.266Z,20
2017-05-04T05:49:57.283Z,20
2017-05-04T05:51:11.614Z,20
2017-05-04T05:51:57.319Z,20
2017-05-04T05:52:57.041Z,25
2017-05-04T05:54:11.979Z,25
2017-05-04T05:55:11.997Z,30
2017-05-04T05:55:57.094Z,30
2017-05-04T05:56:57.423Z,30
2017-05-04T05:57:57.442Z,30
2017-05-04T05:58:57.460Z,30
2017-05-04T05:59:57.485Z,30
2017-05-04T06:00:57.499Z,30
2017-05-04T06:01:57.519Z,30
2017-05-04T06:02:57.541Z,30
2017-05-04T06:03:57.560Z,30
2017-05-04T06:05:12.198Z,35
2017-05-04T06:05:57.601Z,35
2017-05-04T06:06:57.615Z,35
2017-05-04T06:07:57.635Z,35
2017-05-04T06:09:26.891Z,35
2017-05-04T06:10:11.989Z,35
2017-05-04T06:11:11.708Z,35
2017-05-04T06:11:57.964Z,30
2017-05-04T06:12:57.741Z,30
2017-05-04T06:13:57.755Z,25
2017-05-04T06:15:57.820Z,25
2017-05-04T06:17:12.426Z,25
2017-05-04T06:17:57.838Z,30
2017-05-04T06:18:57.554Z,30
2017-05-04T06:19:57.569Z,30
2017-05-04T06:21:12.510Z,30
2017-05-04T06:22:12.529Z,30
2017-05-04T06:22:57.627Z,30
2017-05-04T06:23:57.953Z,30
2017-05-04T06:24:57.973Z,25
2017-05-04T06:25:57.992Z,25
2017-05-04T06:26:57.706Z,25
2017-05-04T06:27:58.059Z,25
2017-05-04T06:28:58.052Z,25
2017-05-04T06:29:57.768Z,25
2017-05-04T06:31:12.402Z,30
2017-05-04T06:34:58.172Z,30
2017-05-04T06:35:58.190Z,30
2017-05-04T06:36:58.212Z,35
2017-05-04T06:37:58.233Z,35
2017-05-04T06:39:12.861Z,35
2017-05-04T06:39:58.263Z,35
2017-05-04T06:40:57.980Z,40
2017-05-04T06:41:58.305Z,40
2017-05-04T06:44:27.271Z,40
2017-05-04T06:45:58.392Z,45
2017-05-04T06:47:13.018Z,50
2017-05-04T06:47:58.429Z,50
2017-05-04T06:48:58.445Z,55
2017-05-04T06:49:58.464Z,55
2017-05-04T06:50:58.478Z,55
2017-05-04T06:51:58.515Z,55
2017-05-04T06:52:58.221Z,55
2017-05-04T06:53:58.243Z,55
2017-05-04T06:54:58.265Z,55
2017-05-04T06:56:13.195Z,55
2017-05-04T06:56:58.606Z,55
2017-05-04T06:57:58.623Z,55
2017-05-04T06:58:58.648Z,55
2017-05-04T07:00:27.891Z,55
2017-05-04T07:00:58.723Z,55
2017-05-04T07:01:58.696Z,55
2017-05-04T07:04:13.046Z,55
2017-05-04T07:04:58.763Z,55
2017-05-04T07:05:58.780Z,55
2017-05-04T07:06:58.803Z,55
2017-05-04T07:07:58.519Z,55
2017-05-04T07:09:13.454Z,55
2017-05-04T07:09:58.854Z,55
2017-05-04T07:10:58.878Z,55
2017-05-04T07:11:58.896Z,55
2017-05-04T07:13:28.148Z,55
2017-05-04T07:13:58.935Z,55
2017-05-04T07:15:13.568Z,55
2017-05-04T07:16:13.593Z,55
2017-05-04T07:16:58.992Z,55
2017-05-04T07:18:13.629Z,55
2017-05-04T07:18:58.735Z,55
2017-05-04T07:19:59.056Z,55
2017-05-04T07:21:13.692Z,55
2017-05-04T07:21:59.341Z,50
2017-05-04T07:22:59.113Z,50
2017-05-04T07:23:58.828Z,45
2017-05-04T07:24:59.155Z,45
2017-05-04T07:26:13.786Z,40
2017-05-04T07:26:59.191Z,35
2017-05-04T07:27:58.934Z,35
2017-05-04T07:29:13.847Z,35
2017-05-04T07:29:58.981Z,35
2017-05-04T07:30:59.269Z,35
2017-05-04T07:31:59.307Z,35
2017-05-04T07:32:59.017Z,35
2017-05-04T07:33:59.329Z,40
2017-05-04T07:34:59.349Z,40
2017-05-04T07:35:59.367Z,35
2017-05-04T07:36:59.084Z,40
2017-05-04T07:37:59.409Z,40
2017-05-04T07:38:58.816Z,40
2017-05-04T07:39:59.446Z,40
2017-05-04T07:40:59.473Z,40
2017-05-04T07:41:59.786Z,40
2017-05-04T07:42:59.510Z,40
2017-05-04T07:44:13.836Z,40
2017-05-04T07:45:14.163Z,40
2017-05-04T07:45:59.573Z,45
2017-05-04T07:46:59.584Z,45
2017-05-04T07:47:59.606Z,50
2017-05-04T07:49:14.238Z,50
2017-05-04T07:50:59.665Z,50
2017-05-04T07:51:59.688Z,50
2017-05-04T07:53:59.419Z,50
2017-05-04T07:55:59.766Z,45
2017-05-04T07:56:59.786Z,40
2017-05-04T07:57:59.494Z,40
2017-05-04T07:58:59.814Z,40
2017-05-04T07:59:59.841Z,40
2017-05-04T08:00:59.554Z,40
2017-05-04T08:01:59.275Z,45
2017-05-04T08:03:14.210Z,45
2017-05-04T08:04:14.533Z,40
2017-05-04T08:05:14.553Z,40
2017-05-04T08:06:59.974Z,40
2017-05-04T08:07:59.695Z,40
2017-05-04T08:09:00.014Z,40
2017-05-04T08:10:59.753Z,40
2017-05-04T08:12:00.077Z,40
2017-05-04T08:13:14.710Z,40
2017-05-04T08:14:00.114Z,40
2017-05-04T08:15:14.445Z,45
2017-05-04T08:15:59.848Z,45
2017-05-04T08:17:14.792Z,45
2017-05-04T08:18:29.423Z,45
2017-05-04T08:18:59.938Z,45
2017-05-04T08:20:00.233Z,45
2017-05-04T08:20:59.944Z,45
2017-05-04T08:22:14.882Z,45
2017-05-04T08:23:00.295Z,45
2017-05-04T08:24:00.319Z,45
2017-05-04T08:25:00.340Z,45
2017-05-04T08:27:00.368Z,55
2017-05-04T08:28:00.394Z,55
2017-05-04T08:29:00.410Z,60
2017-05-04T08:30:00.429Z,60
2017-05-04T08:31:00.449Z,55
2017-05-04T08:32:14.776Z,50
2017-05-04T08:33:00.496Z,50
2017-05-04T08:34:00.505Z,50
2017-05-04T08:35:14.840Z,55
2017-05-04T08:36:00.546Z,60
2017-05-04T08:38:14.922Z,60
2017-05-04T08:39:00.605Z,60
2017-05-04T08:40:15.238Z,55
2017-05-04T08:41:00.338Z,55
2017-05-04T08:42:00.361Z,55
2017-05-04T08:43:00.688Z,55
2017-05-04T08:44:00.402Z,55
2017-05-04T08:45:00.737Z,55
2017-05-04T08:46:00.133Z,55
2017-05-04T08:47:00.457Z,55
2017-05-04T08:48:15.396Z,60
2017-05-04T08:49:15.121Z,65
2017-05-04T08:50:15.161Z,65
2017-05-04T08:51:00.539Z,70
2017-05-04T08:52:00.864Z,70
2017-05-04T08:54:00.597Z,70
2017-05-04T08:55:00.920Z,70
2017-05-04T08:56:00.639Z,70
2017-05-04T08:57:00.965Z,75
2017-05-04T08:58:00.994Z,75
2017-05-04T08:59:01.036Z,75
2017-05-04T09:00:00.720Z,75
2017-05-04T09:01:01.043Z,80
2017-05-04T09:02:15.372Z,90
2017-05-04T09:03:01.084Z,90
2017-05-04T09:04:01.103Z,85
2017-05-04T09:05:01.123Z,85
2017-05-04T09:06:15.452Z,75
2017-05-04T09:07:01.162Z,70
2017-05-04T09:09:01.200Z,65
2017-05-04T09:10:00.925Z,65
2017-05-04T09:11:15.855Z,80
2017-05-04T09:12:00.964Z,85
2017-05-04T09:13:01.290Z,90
2017-05-04T09:14:16.217Z,85
2017-05-04T09:15:01.021Z,90
2017-05-04T09:16:01.340Z,85
2017-05-04T09:17:15.977Z,95
2017-05-04T09:18:01.083Z,95
2017-05-04T09:19:15.722Z,100
2017-05-04T09:20:01.124Z,95
2017-05-04T09:21:01.143Z,90
2017-05-04T09:22:16.079Z,80
2017-05-04T09:23:15.795Z,75
2017-05-04T09:24:01.506Z,75
2017-05-04T09:25:16.137Z,70
2017-05-04T09:26:01.570Z,75
2017-05-04T09:27:01.259Z,75
2017-05-04T09:28:01.280Z,70
2017-05-04T09:30:16.242Z,75
2017-05-04T09:31:01.346Z,80
2017-05-04T09:32:01.664Z,80
2017-05-04T09:33:01.385Z,90
2017-05-04T09:34:01.719Z,85
2017-05-04T09:35:16.036Z,75
2017-05-04T09:36:16.057Z,75
2017-05-04T09:38:31.015Z,60
2017-05-04T09:39:16.423Z,60
2017-05-04T09:40:01.539Z,60
2017-05-04T09:42:01.867Z,80
2017-05-04T09:43:01.586Z,70
2017-05-04T09:44:01.910Z,65
2017-05-04T09:45:01.630Z,70
2017-05-04T09:47:01.667Z,70
2017-05-04T09:48:01.987Z,70
2017-05-04T09:49:01.706Z,75
2017-05-04T09:50:16.648Z,75
2017-05-04T09:51:02.048Z,75
2017-05-04T09:52:01.769Z,70
2017-05-04T09:53:02.088Z,70
2017-05-04T09:54:02.151Z,70
2017-05-04T09:55:01.522Z,70
2017-05-04T09:56:16.460Z,70
2017-05-04T09:57:16.783Z,75
2017-05-04T09:58:01.889Z,70
2017-05-04T09:59:01.905Z,70
2017-05-04T10:00:02.228Z,70
2017-05-04T10:01:01.948Z,75
2017-05-04T10:02:01.967Z,65
2017-05-04T10:03:16.909Z,65
2017-05-04T10:04:02.315Z,65
2017-05-04T10:05:02.333Z,60
2017-05-04T10:06:02.357Z,60
2017-05-04T10:07:02.370Z,55
2017-05-04T10:08:02.143Z,55
2017-05-04T10:09:02.438Z,55
2017-05-04T10:10:02.133Z,50
2017-05-04T10:11:02.153Z,50
2017-05-04T10:12:02.170Z,50
2017-05-04T10:13:17.119Z,50
2017-05-04T10:15:02.237Z,45
2017-05-04T10:16:02.247Z,50
2017-05-04T10:17:02.273Z,55
2017-05-04T10:18:02.599Z,60
2017-05-04T10:19:02.621Z,60
2017-05-04T10:20:02.342Z,60
2017-05-04T10:21:16.969Z,50
2017-05-04T10:22:02.676Z,55
2017-05-04T10:23:31.627Z,50
2017-05-04T10:24:02.446Z,45
2017-05-04T10:25:02.134Z,45
2017-05-04T10:26:17.376Z,45
2017-05-04T10:27:02.782Z,45
2017-05-04T10:28:16.837Z,45
2017-05-04T10:29:02.516Z,50
2017-05-04T10:30:02.843Z,50
2017-05-04T10:32:02.899Z,65
2017-05-04T10:33:02.901Z,65
2017-05-04T10:34:02.926Z,75
2017-05-04T10:35:02.942Z,70
2017-05-04T10:36:02.962Z,75
2017-05-04T10:37:02.980Z,80
2017-05-04T10:38:17.617Z,85
2017-05-04T10:39:03.024Z,80
2017-05-04T10:40:03.047Z,80
2017-05-04T10:41:17.682Z,70
2017-05-04T10:42:03.093Z,70
2017-05-04T10:43:03.109Z,65
2017-05-04T10:44:03.127Z,70
2017-05-04T10:45:03.144Z,75
2017-05-04T10:46:03.163Z,70
2017-05-04T10:47:03.226Z,65
2017-05-04T10:48:03.208Z,60
2017-05-04T10:49:03.232Z,60
2017-05-04T10:50:02.942Z,55
2017-05-04T10:51:03.268Z,55
2017-05-04T10:52:17.904Z,55
2017-05-04T10:53:17.929Z,55
2017-05-04T10:54:17.940Z,50
2017-05-04T10:55:17.966Z,55
2017-05-04T10:56:17.986Z,55
2017-05-04T10:57:18.003Z,55
2017-05-04T10:58:03.412Z,55
2017-05-04T10:59:03.426Z,60
2017-05-04T11:00:17.763Z,55
2017-05-04T11:01:03.478Z,60
2017-05-04T11:02:03.488Z,55
2017-05-04T11:04:03.535Z,55
2017-05-04T11:05:03.554Z,55
2017-05-04T11:06:03.569Z,55
2017-05-04T11:07:03.593Z,55
2017-05-04T11:08:03.307Z,60
2017-05-04T11:09:03.331Z,60
2017-05-04T11:10:03.351Z,60
2017-05-04T11:11:03.366Z,60
2017-05-04T11:12:18.311Z,55
2017-05-04T11:13:03.408Z,55
2017-05-04T11:14:18.346Z,60
2017-05-04T11:15:03.448Z,60
2017-05-04T11:16:18.396Z,55
2017-05-04T11:17:03.794Z,60
2017-05-04T11:18:03.515Z,60
2017-05-04T11:20:03.856Z,60
2017-05-04T11:21:03.874Z,55
2017-05-04T11:22:03.900Z,55
2017-05-04T11:23:03.917Z,55
2017-05-04T11:24:03.939Z,60
2017-05-04T11:25:03.955Z,60
2017-05-04T11:26:03.981Z,60
2017-05-04T11:27:03.696Z,60
2017-05-04T11:28:04.019Z,60
2017-05-04T11:29:18.044Z,60
2017-05-04T11:30:04.059Z,60
2017-05-04T11:31:04.076Z,60
2017-05-04T11:32:18.712Z,60
2017-05-04T11:33:04.117Z,60
2017-05-04T11:36:04.201Z,65
2017-05-04T11:37:04.198Z,60
2017-05-04T11:38:04.217Z,65
2017-05-04T11:39:04.243Z,70
2017-05-04T11:40:04.261Z,75
2017-05-04T11:41:18.902Z,80
2017-05-04T11:42:18.916Z,70
2017-05-04T11:43:04.015Z,75
2017-05-04T11:44:04.042Z,75
2017-05-04T11:45:04.365Z,80
2017-05-04T11:46:04.077Z,75
2017-05-04T11:47:04.400Z,65
2017-05-04T11:48:18.740Z,65
2017-05-04T11:49:04.442Z,65
2017-05-04T11:50:04.471Z,60
2017-05-04T11:51:04.487Z,55
2017-05-04T11:52:04.514Z,55
2017-05-04T11:53:18.843Z,60
2017-05-04T11:54:04.543Z,55
2017-05-04T11:55:04.564Z,55
2017-05-04T11:56:04.583Z,55
2017-05-04T11:57:04.608Z,55
2017-05-04T11:58:04.629Z,55
2017-05-04T11:59:04.658Z,60
2017-05-04T12:00:18.979Z,60
2017-05-04T12:01:04.686Z,60
2017-05-04T12:02:04.707Z,60
2017-05-04T12:03:19.344Z,60
2017-05-04T12:04:04.750Z,60
2017-05-04T12:05:04.777Z,55
2017-05-04T12:06:04.845Z,55
2017-05-04T12:07:04.815Z,60
2017-05-04T12:08:04.831Z,55
2017-05-04T12:09:04.854Z,50
2017-05-04T12:10:04.568Z,50
2017-05-04T12:11:19.507Z,50
2017-05-04T12:12:05.224Z,60
2017-05-04T12:13:19.549Z,60
2017-05-04T12:14:04.951Z,55
2017-05-04T12:15:05.001Z,55
2017-05-04T12:16:34.224Z,60
2017-05-04T12:17:05.019Z,60
2017-05-04T12:18:05.032Z,60
2017-05-04T12:19:19.678Z,55
2017-05-04T12:20:05.080Z,55
2017-05-04T12:21:05.108Z,55
2017-05-04T12:22:05.136Z,60
2017-05-04T12:24:05.158Z,60
2017-05-04T12:26:05.208Z,60
2017-05-04T12:27:05.216Z,55
2017-05-04T12:28:05.240Z,50
2017-05-04T12:29:04.956Z,45
2017-05-04T12:30:05.284Z,45
2017-05-04T12:31:05.300Z,40
2017-05-04T12:32:34.551Z,40
2017-05-04T12:33:05.341Z,40
2017-05-04T12:34:19.976Z,40
2017-05-04T12:35:20.000Z,40
2017-05-04T12:36:20.016Z,40
2017-05-04T12:38:05.141Z,40
2017-05-04T12:39:05.467Z,40
2017-05-04T12:41:05.505Z,40
2017-05-04T12:42:05.526Z,40
2017-05-04T12:43:05.246Z,40
2017-05-04T12:44:34.802Z,40
2017-05-04T12:45:05.585Z,40
2017-05-04T12:46:05.000Z,40
2017-05-04T12:47:05.329Z,45
2017-05-04T12:48:05.343Z,45
2017-05-04T12:49:05.673Z,50
2017-05-04T12:50:05.385Z,55
2017-05-04T12:51:20.020Z,55
2017-05-04T12:52:05.424Z,55
2017-05-04T12:54:20.390Z,50
2017-05-04T12:55:05.489Z,50
2017-05-04T12:56:05.813Z,55
2017-05-04T12:57:05.836Z,50
2017-05-04T12:58:05.558Z,50
2017-05-04T12:59:05.272Z,55
2017-05-04T13:00:05.902Z,55
2017-05-04T13:01:05.917Z,50
2017-05-04T13:02:05.632Z,50
2017-05-04T13:03:05.655Z,50
2017-05-04T13:04:05.975Z,50
2017-05-04T13:05:20.616Z,55
2017-05-04T13:06:06.027Z,50
2017-05-04T13:07:20.669Z,50
2017-05-04T13:08:06.061Z,50
2017-05-04T13:09:06.078Z,50
2017-05-04T13:10:05.792Z,55
2017-05-04T13:11:20.739Z,55
2017-05-04T13:12:06.138Z,55
2017-05-04T13:13:06.162Z,50
2017-05-04T13:14:20.493Z,50
2017-05-04T13:15:06.200Z,50
2017-05-04T13:16:06.228Z,45
2017-05-04T13:17:06.239Z,45
2017-05-04T13:18:06.270Z,45
2017-05-04T13:19:06.311Z,45
2017-05-04T13:20:20.920Z,45
2017-05-04T13:21:06.328Z,45
2017-05-04T13:22:06.344Z,50
2017-05-04T13:24:06.383Z,50
2017-05-04T13:25:06.409Z,45
2017-05-04T13:27:06.448Z,45
2017-05-04T13:28:06.469Z,45
2017-05-04T13:29:06.493Z,50
2017-05-04T13:30:06.508Z,45
2017-05-04T13:31:06.227Z,40
2017-05-04T13:32:06.554Z,40
2017-05-04T13:33:06.571Z,40
2017-05-04T13:34:06.598Z,40
2017-05-04T13:35:06.621Z,40
2017-05-04T13:36:35.862Z,40
2017-05-04T13:37:06.662Z,35
2017-05-04T13:38:20.989Z,35
2017-05-04T13:39:06.698Z,35
2017-05-04T13:40:06.712Z,35
2017-05-04T13:41:21.054Z,35
2017-05-04T13:42:06.754Z,35
2017-05-04T13:43:06.775Z,35
2017-05-04T13:44:06.799Z,30
2017-05-04T13:45:06.818Z,30
2017-05-04T13:46:06.852Z,25
2017-05-04T13:47:06.856Z,25
2017-05-04T13:48:06.582Z,30
2017-05-04T13:49:06.900Z,30
2017-05-04T13:50:06.925Z,30
2017-05-04T13:51:21.558Z,30
2017-05-04T13:52:06.961Z,30
2017-05-04T13:53:06.984Z,30
2017-05-04T13:54:07.005Z,30
2017-05-04T13:55:07.024Z,30
2017-05-04T13:57:07.067Z,30
2017-05-04T13:58:07.089Z,30
2017-05-04T13:59:07.103Z,30
2017-05-04T14:00:06.828Z,25
2017-05-04T14:01:06.846Z,25
2017-05-04T14:02:21.783Z,25
2017-05-04T14:03:07.185Z,25
2017-05-04T14:04:21.829Z,25
2017-05-04T14:05:07.227Z,25
2017-05-04T14:06:21.865Z,25
2017-05-04T14:07:07.269Z,25
2017-05-04T14:08:07.293Z,25
2017-05-04T14:09:07.305Z,25
2017-05-04T14:10:21.942Z,30
2017-05-04T14:11:07.351Z,25
2017-05-04T14:12:07.376Z,25
2017-05-04T14:13:07.089Z,25
2017-05-04T14:15:07.134Z,25
2017-05-04T14:16:07.165Z,25
2017-05-04T14:17:07.475Z,25
2017-05-04T14:18:07.493Z,25
2017-05-04T14:19:07.210Z,30
2017-05-04T14:20:06.949Z,30
2017-05-04T14:21:07.263Z,30
2017-05-04T14:22:22.192Z,30
2017-05-04T14:23:22.210Z,35
2017-05-04T14:24:07.614Z,30
2017-05-04T14:25:07.654Z,30
2017-05-04T14:26:22.270Z,35
2017-05-04T14:27:07.680Z,35
2017-05-04T14:28:07.705Z,30
2017-05-04T14:29:07.713Z,30
2017-05-04T14:30:07.742Z,30
2017-05-04T14:31:07.460Z,25
2017-05-04T14:33:07.799Z,30
2017-05-04T14:34:22.436Z,30
2017-05-04T14:36:07.555Z,25
2017-05-04T14:37:22.197Z,25
2017-05-04T14:38:07.598Z,25
2017-05-04T14:39:37.153Z,25
2017-05-04T14:40:07.347Z,25
2017-05-04T14:41:07.962Z,25
2017-05-04T14:42:22.295Z,25
2017-05-04T14:43:22.618Z,25
2017-05-04T14:45:07.744Z,30
2017-05-04T14:46:08.062Z,30
2017-05-04T14:48:08.103Z,25
2017-05-04T14:50:37.382Z,25
2017-05-04T14:51:08.167Z,25
2017-05-04T14:52:07.885Z,25
2017-05-04T14:53:22.823Z,25
2017-05-04T14:54:08.227Z,25
2017-05-04T14:55:37.479Z,25
2017-05-04T14:56:07.964Z,25
2017-05-04T14:59:08.334Z,25
2017-05-04T15:00:08.352Z,30
2017-05-04T15:01:08.395Z,30
2017-05-04T15:02:08.391Z,30
2017-05-04T15:03:08.119Z,30
2017-05-04T15:04:08.481Z,30
2017-05-04T15:05:08.469Z,30
2017-05-04T15:06:08.178Z,30
2017-05-04T15:07:08.199Z,30
2017-05-04T15:08:08.513Z,35
2017-05-04T15:09:08.230Z,30
2017-05-04T15:11:08.576Z,35
2017-05-04T15:12:08.294Z,35
2017-05-04T15:13:23.235Z,30
2017-05-04T15:14:08.641Z,30
2017-05-04T15:15:08.664Z,30
2017-05-04T15:16:23.301Z,35
2017-05-04T15:17:08.705Z,35
2017-05-04T15:18:23.342Z,35
2017-05-04T15:19:08.773Z,35
2017-05-04T15:20:08.464Z,35
2017-05-04T15:21:08.784Z,35
2017-05-04T15:22:08.499Z,35
2017-05-04T15:23:08.827Z,35
2017-05-04T15:24:08.841Z,35
2017-05-04T15:25:08.872Z,30
2017-05-04T15:26:08.888Z,30
2017-05-04T15:27:08.605Z,30
2017-05-04T15:28:08.928Z,30
2017-05-04T15:29:08.988Z,30
2017-05-04T15:30:08.976Z,30
2017-05-04T15:31:09.021Z,30
2017-05-04T15:33:09.028Z,25